Friday, January 18, 2019, 11:13 PM EST
Back to Local

KCON, Concord, Concord Municipal Airport

Location: Concord, NH, United States Lat: 43.195
Local Time: 11:13 PM EST ( 4:13 GMT) Lon: -71.501
Time Zone: US/Eastern Elev: 344 ft

Show me the last for .
Show Decoded

2019-01-18 22:51 METAR KCON 190351Z AUTO 33005KT 10SM CLR M02/M06 A3007 RMK AO2 SLP188 T10171056
                 =
2019-01-18 21:51 METAR KCON 190251Z AUTO 28005KT 10SM OVC044 M01/M04 A3005 RMK AO2 SLP182
                 T10111044 53010 =
2019-01-18 20:51 METAR KCON 190151Z AUTO 00000KT 10SM OVC039 M05/M07 A3003 RMK AO2 SLP177
                 T10501067 =
2019-01-18 19:51 METAR KCON 190051Z AUTO 00000KT 10SM CLR M06/M07 A3004 RMK AO2 SLP177 T10561072
                 =
2019-01-18 18:51 METAR KCON 182351Z AUTO 29003KT 10SM CLR M04/M07 A3002 RMK AO2 SLP174 60000
                 T10441072 11006 21044 53009 =
2019-01-18 17:51 METAR KCON 182251Z AUTO 34003KT 10SM FEW065 OVC090 M03/M06 A3000 RMK AO2 SLP166
                 T10281061 =
2019-01-18 16:51 METAR KCON 182151Z AUTO 29004KT 10SM FEW031 OVC055 M02/M06 A3001 RMK AO2
                 SNB16E27 SLP168 P0000 T10221061 =
2019-01-18 15:51 METAR KCON 182051Z AUTO 32005KT 10SM OVC065 M01/M06 A3000 RMK AO2 SLP163
                 T10111061 55003 =
2019-01-18 15:00 METAR KCON 182000Z AUTO 18005KT 10SM FEW028 OVC042 M01/M05 A2999 RMK AO2
                 T10061050 =
2019-01-18 14:51 METAR KCON 181951Z AUTO 17005KT 10SM BKN028 OVC042 M01/M05 A2999 RMK AO2 SLP162
                 T10061050 =
2019-01-18 14:46 METAR KCON 181946Z AUTO 17006KT 10SM BKN028 OVC042 M01/M06 A2999 RMK AO2 =
2019-01-18 14:10 METAR KCON 181910Z AUTO 16006KT 10SM SCT027 OVC042 M01/M06 A3000 RMK AO2
                 T10111061 =
2019-01-18 13:51 METAR KCON 181851Z AUTO 16006KT 10SM OVC027 M01/M06 A3001 RMK AO2 SLP167
                 T10111061 =
2019-01-18 13:02 METAR KCON 181802Z AUTO 00000KT 10SM BKN028 BKN040 OVC050 M03/M09 A3002 RMK AO2
                 T10281094 =
2019-01-18 12:51 METAR KCON 181751Z AUTO 00000KT 10SM FEW024 BKN041 OVC050 M03/M09 A3003 RMK AO2
                 SLP174 T10331094 11033 21083 58029 =
2019-01-18 12:28 METAR KCON 181728Z AUTO 00000KT 10SM SCT025 OVC041 M03/M10 A3004 RMK AO2
                 T10331100 =
2019-01-18 11:51 METAR KCON 181651Z AUTO 00000KT 10SM BKN023 OVC031 M04/M11 A3008 RMK AO2 SLP191
                 T10441111 =
2019-01-18 11:48 METAR KCON 181648Z AUTO 00000KT 10SM BKN023 OVC031 M04/M11 A3008 RMK AO2 =
2019-01-18 10:51 METAR KCON 181551Z AUTO 00000KT 10SM FEW023 OVC036 M06/M11 A3011 RMK AO2 SLP204
                 T10561106 =
2019-01-18 09:51 METAR KCON 181451Z AUTO 00000KT 10SM SCT022 OVC037 M07/M11 A3014 RMK AO2 SLP213
                 T10671111 55002 =
2019-01-18 09:46 METAR KCON 181446Z AUTO 00000KT 10SM SCT022 OVC037 M07/M11 A3014 RMK AO2 =
2019-01-18 09:13 METAR KCON 181413Z AUTO 00000KT 10SM BKN022 OVC043 M07/M12 A3014 RMK AO2
                 T10721117 =
2019-01-18 08:51 METAR KCON 181351Z AUTO 00000KT 10SM OVC044 M07/M12 A3014 RMK AO2 SLP213
                 T10721117 TSNO =
2019-01-18 07:51 METAR KCON 181251Z AUTO 00000KT 10SM OVC048 M08/M12 A3015 RMK AO2 SLP215
                 T10781122 =
2019-01-18 06:51 METAR KCON 181151Z AUTO 00000KT 10SM BKN050 OVC060 M08/M12 A3016 RMK AO2 SLP220
                 T10831122 11078 21100 55012 =
2019-01-18 05:51 METAR KCON 181051Z AUTO 30003KT 10SM OVC060 M08/M12 A3015 RMK AO2 SLP217
                 T10831122 =
2019-01-18 04:51 METAR KCON 180951Z AUTO 00000KT 10SM SCT032 BKN065 M09/M13 A3017 RMK AO2 SLP222
                 T10891133 =
2019-01-18 03:51 METAR KCON 180851Z AUTO 00000KT 10SM SCT033 OVC090 M08/M13 A3020 RMK AO2 SLP232
                 T10831128 58020 =
2019-01-18 02:51 METAR KCON 180751Z AUTO 00000KT 10SM BKN055 OVC070 M08/M13 A3024 RMK AO2 SLP245
                 T10831133 =
2019-01-18 01:51 METAR KCON 180651Z AUTO 00000KT 10SM BKN060 OVC085 M08/M13 A3024 RMK AO2 SLP248
                 T10831133 =
2019-01-18 00:51 METAR KCON 180551Z AUTO 00000KT 10SM BKN080 OVC100 M08/M14 A3026 RMK AO2 SLP253
                 T10831139 11078 21094 58018 =
2019-01-17 23:51 METAR KCON 180451Z AUTO 00000KT 10SM OVC095 M08/M14 A3029 RMK AO2 SLP263
                 T10831144 410501144 =

Support USWX by starting your Amazon purchase here.